Time;durP1;ratioP1;P1;durP2;ratioP2;P2;SDS_P1;SDS_P2;PMS_P1;PMS_P2;Temp;Humidity;BMP_temperature;BMP_pressure;BME280_temperature;BME280_humidity;BME280_pressure;Samples;Min_cycle;Max_cycle;Signal;HPM_P1;HPM_P2
2022/12/06 00:02:10;;;;;;;0.68;0.68;;;1.90;99.90;;;;;;5075011;28;20195;-68
2022/12/06 00:04:36;;;;;;;0.70;0.70;;;1.90;99.90;;;;;;5074800;28;20699;-68
2022/12/06 00:07:01;;;;;;;0.30;0.30;;;2.00;99.90;;;;;;5075010;28;20202;-68
2022/12/06 00:09:30;;;;;;;0.30;0.30;;;2.00;99.90;;;;;;5074785;28;20167;-68
2022/12/06 00:11:55;;;;;;;0.60;0.60;;;1.90;99.90;;;;;;5074971;28;20167;-68
2022/12/06 00:14:22;;;;;;;0.87;0.87;;;1.70;99.90;;;;;;5074549;28;20172;-68
2022/12/06 00:16:48;;;;;;;0.40;0.40;;;1.70;99.90;;;;;;5074677;28;20799;-68
2022/12/06 00:19:16;;;;;;;0.40;0.40;;;1.70;99.90;;;;;;5074438;28;20240;-68
2022/12/06 00:21:43;;;;;;;0.40;0.40;;;1.80;99.90;;;;;;5074837;28;20224;-68
2022/12/06 00:24:12;;;;;;;0.30;0.30;;;1.90;99.90;;;;;;5074528;28;20162;-68
2022/12/06 00:26:42;;;;;;;1.73;1.73;;;1.80;99.90;;;;;;5074404;28;20250;-68
2022/12/06 00:29:14;;;;;;;0.40;0.40;;;1.70;99.90;;;;;;5074449;28;20198;-68
2022/12/06 00:31:40;;;;;;;0.35;0.35;;;1.60;99.90;;;;;;5074651;28;20168;-68
2022/12/06 00:34:06;;;;;;;0.40;0.40;;;1.70;99.90;;;;;;5074373;28;20220;-68
2022/12/06 00:36:35;;;;;;;1.35;1.35;;;1.80;99.90;;;;;;5074165;28;20414;-68
2022/12/06 00:39:07;;;;;;;2.72;2.35;;;1.80;99.90;;;;;;5074492;28;20195;-68
2022/12/06 00:41:33;;;;;;;0.57;0.57;;;1.70;99.90;;;;;;5074609;28;20664;-68
2022/12/06 00:43:59;;;;;;;0.40;0.40;;;1.70;99.90;;;;;;5074188;28;20176;-68
2022/12/06 00:46:28;;;;;;;2.20;0.97;;;1.70;99.90;;;;;;5073997;28;20175;-68
2022/12/06 00:48:55;;;;;;;0.75;0.65;;;1.80;99.90;;;;;;5074100;28;20691;-68
2022/12/06 00:51:22;;;;;;;0.30;0.30;;;1.70;99.90;;;;;;5074200;28;20180;-68
2022/12/06 00:53:48;;;;;;;0.50;0.50;;;1.60;99.90;;;;;;5074018;28;20170;-68
2022/12/06 00:56:15;;;;;;;0.30;0.30;;;1.60;99.90;;;;;;5073638;28;20185;-68
2022/12/06 00:58:41;;;;;;;1.00;1.00;;;1.60;99.90;;;;;;5073872;28;20193;-68
2022/12/06 01:01:17;;;;;;;0.30;0.30;;;1.70;99.90;;;;;;5074005;28;20163;-68
2022/12/06 01:03:44;;;;;;;0.40;0.40;;;1.70;99.80;;;;;;5073961;28;20173;-68
2022/12/06 01:06:12;;;;;;;0.30;0.30;;;1.60;99.80;;;;;;5073553;28;20174;-68
2022/12/06 01:08:39;;;;;;;0.88;0.80;;;1.50;99.90;;;;;;5073339;28;20170;-68
2022/12/06 01:11:06;;;;;;;0.40;0.40;;;1.50;99.90;;;;;;5073841;28;20185;-68
2022/12/06 01:13:32;;;;;;;0.40;0.40;;;1.40;99.90;;;;;;5073653;28;20172;-68
2022/12/06 01:16:10;;;;;;;0.30;0.30;;;1.30;99.90;;;;;;5073729;28;20183;-68
2022/12/06 01:18:36;;;;;;;1.10;0.60;;;1.40;99.90;;;;;;5073487;28;20276;-68
2022/12/06 01:21:06;;;;;;;0.50;0.50;;;1.40;99.90;;;;;;5073649;28;20172;-68
2022/12/06 01:23:31;;;;;;;0.30;0.30;;;1.40;99.90;;;;;;5073817;28;20167;-68
2022/12/06 01:25:57;;;;;;;0.63;0.63;;;1.30;99.90;;;;;;5073591;28;20167;-68
2022/12/06 01:28:22;;;;;;;0.30;0.30;;;1.40;99.90;;;;;;5073460;28;20562;-68
2022/12/06 01:30:48;;;;;;;0.30;0.30;;;1.40;99.80;;;;;;5073642;28;20200;-68
2022/12/06 01:33:14;;;;;;;0.30;0.30;;;1.50;99.50;;;;;;5073455;28;20254;-68
2022/12/06 01:35:41;;;;;;;0.60;0.60;;;1.50;99.50;;;;;;5073322;28;20172;-68
2022/12/06 01:38:07;;;;;;;0.30;0.30;;;1.40;99.60;;;;;;5073179;28;20206;-68
2022/12/06 01:40:41;;;;;;;0.40;0.40;;;1.30;99.70;;;;;;5073504;28;20179;-68
2022/12/06 01:43:28;;;;;;;0.30;0.30;;;1.30;99.90;;;;;;5073346;28;20165;-68
2022/12/06 01:45:55;;;;;;;0.30;0.30;;;1.30;99.90;;;;;;5073171;28;20202;-68
2022/12/06 01:48:25;;;;;;;0.30;0.30;;;1.20;99.90;;;;;;5073248;28;20543;-68
2022/12/06 01:50:54;;;;;;;0.30;0.30;;;1.20;99.90;;;;;;5073395;28;20171;-68
2022/12/06 01:53:21;;;;;;;0.30;0.30;;;1.30;99.90;;;;;;5073403;28;20183;-68
2022/12/06 01:55:47;;;;;;;0.30;0.30;;;1.30;99.60;;;;;;5073069;28;20194;-68
2022/12/06 01:58:19;;;;;;;0.90;0.90;;;1.30;99.70;;;;;;5073085;28;20203;-68
2022/12/06 02:00:44;;;;;;;0.40;0.40;;;1.20;99.90;;;;;;5073228;28;20412;-68
2022/12/06 02:03:16;;;;;;;0.30;0.30;;;1.30;99.70;;;;;;5073371;28;20170;-68
2022/12/06 02:05:43;;;;;;;0.85;0.85;;;1.30;99.50;;;;;;5071927;28;20413;-68
2022/12/06 02:08:09;;;;;;;0.40;0.40;;;1.30;99.30;;;;;;5073046;28;20189;-68
2022/12/06 02:10:36;;;;;;;0.30;0.30;;;1.20;99.40;;;;;;5073519;28;20285;-68
2022/12/06 02:13:02;;;;;;;5.57;1.35;;;1.10;99.40;;;;;;5073095;28;20183;-68
2022/12/06 02:16:09;;;;;;;0.60;0.60;;;1.00;99.60;;;;;;5073012;28;20690;-68
2022/12/06 02:19:02;;;;;;;0.82;0.82;;;1.00;99.80;;;;;;5072841;28;20222;-68
2022/12/06 02:21:48;;;;;;;0.30;0.30;;;1.00;99.90;;;;;;5076886;28;20185;-68
2022/12/06 02:24:38;;;;;;;0.38;0.38;;;0.90;99.90;;;;;;5076638;28;20631;-68
2022/12/06 02:27:36;;;;;;;1.40;1.30;;;0.90;99.90;;;;;;5077003;28;20680;-68
2022/12/06 02:30:10;;;;;;;0.30;0.30;;;0.90;99.90;;;;;;5076509;28;20193;-68
2022/12/06 02:32:41;;;;;;;0.40;0.40;;;0.90;99.90;;;;;;5077037;28;20528;-68
2022/12/06 02:35:31;;;;;;;0.40;0.40;;;0.90;99.80;;;;;;5076576;28;20181;-68
2022/12/06 02:38:05;;;;;;;0.38;0.38;;;1.00;99.70;;;;;;5076302;28;20209;-68
2022/12/06 02:40:40;;;;;;;0.30;0.30;;;1.00;99.50;;;;;;5076785;28;20175;-68
2022/12/06 02:43:17;;;;;;;0.40;0.40;;;1.00;99.50;;;;;;5076812;28;20166;-67
2022/12/06 02:45:48;;;;;;;0.30;0.30;;;0.90;99.50;;;;;;5076310;28;20267;-68
2022/12/06 02:48:16;;;;;;;0.70;0.70;;;0.90;99.50;;;;;;5076345;28;20210;-68
2022/12/06 02:50:48;;;;;;;0.30;0.30;;;0.90;99.60;;;;;;5076370;28;20171;-68
2022/12/06 02:53:18;;;;;;;0.30;0.30;;;0.90;99.70;;;;;;5076532;28;20167;-68
2022/12/06 02:55:45;;;;;;;0.30;0.30;;;0.90;99.70;;;;;;5076138;28;20624;-68
2022/12/06 02:58:10;;;;;;;0.30;0.30;;;0.90;99.70;;;;;;5076009;28;20201;-68
2022/12/06 03:00:45;;;;;;;0.30;0.30;;;0.90;99.90;;;;;;5074921;28;20700;-68
2022/12/06 03:03:56;;;;;;;0.30;0.30;;;1.00;99.90;;;;;;5074971;28;20245;-69
2022/12/06 03:06:44;;;;;;;0.30;0.30;;;1.10;99.80;;;;;;5070395;28;20190;-68
2022/12/06 03:09:37;;;;;;;1.13;1.13;;;1.10;99.70;;;;;;5074827;28;20253;-68
2022/12/06 03:12:07;;;;;;;0.30;0.30;;;1.00;99.50;;;;;;5075983;28;20248;-68
2022/12/06 03:14:42;;;;;;;0.30;0.30;;;1.00;99.40;;;;;;5075863;28;20170;-68
2022/12/06 03:17:16;;;;;;;0.40;0.40;;;1.00;99.50;;;;;;5075963;28;20197;-68
2022/12/06 03:19:42;;;;;;;0.82;0.82;;;1.00;99.50;;;;;;5075830;28;20166;-68
2022/12/06 03:22:32;;;;;;;0.63;0.63;;;1.00;99.50;;;;;;5075830;28;20258;-68
2022/12/06 03:24:59;;;;;;;0.40;0.40;;;1.00;99.40;;;;;;5075260;28;20557;-68
2022/12/06 03:27:27;;;;;;;0.75;0.75;;;1.00;99.40;;;;;;5075614;28;20205;-68
2022/12/06 03:29:57;;;;;;;0.30;0.30;;;1.00;99.40;;;;;;5075372;28;20525;-68
2022/12/06 03:32:28;;;;;;;0.38;0.38;;;1.00;99.80;;;;;;5075811;28;20173;-68
2022/12/06 03:34:57;;;;;;;0.30;0.30;;;0.90;99.30;;;;;;5075634;28;20596;-68
2022/12/06 03:37:26;;;;;;;0.50;0.50;;;0.90;99.40;;;;;;5075445;28;20233;-68
2022/12/06 03:39:57;;;;;;;0.30;0.30;;;0.90;99.40;;;;;;5075412;28;20216;-68
2022/12/06 03:42:23;;;;;;;0.30;0.30;;;0.90;99.40;;;;;;5075630;28;20174;-68
2022/12/06 03:44:49;;;;;;;0.40;0.40;;;0.90;99.00;;;;;;5075363;28;20245;-68
2022/12/06 03:47:22;;;;;;;0.30;0.30;;;0.90;99.00;;;;;;5075216;28;20834;-68
2022/12/06 03:49:56;;;;;;;0.93;0.88;;;0.90;99.10;;;;;;5075471;28;20693;-68
2022/12/06 03:52:23;;;;;;;0.50;0.50;;;0.90;99.10;;;;;;5075459;28;20224;-68
2022/12/06 03:54:49;;;;;;;0.50;0.50;;;0.80;99.20;;;;;;5075025;28;20175;-68
2022/12/06 03:57:14;;;;;;;0.33;0.33;;;0.80;99.30;;;;;;5074952;28;20199;-68
2022/12/06 03:59:40;;;;;;;0.30;0.30;;;0.90;99.40;;;;;;5075080;28;20647;-68
2022/12/06 04:02:06;;;;;;;0.30;0.30;;;1.00;99.50;;;;;;5075093;28;20661;-68
2022/12/06 04:04:31;;;;;;;0.40;0.40;;;1.00;99.50;;;;;;5074931;28;20177;-68
2022/12/06 04:06:57;;;;;;;0.60;0.60;;;1.10;99.50;;;;;;5075021;28;20192;-68
2022/12/06 04:12:59;;;;;;;0.30;0.30;;;1.30;99.40;;;;;;5074870;28;20181;-68
2022/12/06 04:14:53;;;;;;;0.30;0.30;;;1.40;99.40;;;;;;5074529;28;20181;-68
2022/12/06 04:20:03;;;;;;;0.43;0.43;;;1.50;99.30;;;;;;5074696;28;20200;-68
2022/12/06 04:25:13;;;;;;;0.30;0.30;;;1.60;99.30;;;;;;5074573;28;20177;-68
2022/12/06 04:38:41;;;;;;;0.30;0.30;;;1.90;98.70;;;;;;5074132;28;20303;-68
2022/12/06 04:41:07;;;;;;;0.30;0.30;;;1.90;98.70;;;;;;5074286;28;20560;-68
2022/12/06 04:43:41;;;;;;;0.93;0.63;;;1.80;98.60;;;;;;5073574;28;20182;-68
2022/12/06 04:46:12;;;;;;;0.30;0.30;;;1.90;98.80;;;;;;5074084;28;20197;-68
2022/12/06 04:48:39;;;;;;;0.60;0.60;;;1.90;98.70;;;;;;5074091;28;20171;-67
2022/12/06 04:51:05;;;;;;;0.30;0.30;;;2.00;98.80;;;;;;5074046;28;20630;-68
2022/12/06 04:53:30;;;;;;;0.40;0.40;;;2.00;98.70;;;;;;5074010;28;20244;-69
2022/12/06 04:55:56;;;;;;;2.50;1.33;;;2.10;98.50;;;;;;5074002;28;20175;-68
2022/12/06 04:58:22;;;;;;;0.30;0.30;;;2.10;98.40;;;;;;5073798;28;20214;-68
2022/12/06 05:00:53;;;;;;;0.40;0.40;;;2.00;98.40;;;;;;5073913;28;20402;-68
2022/12/06 05:03:18;;;;;;;0.30;0.30;;;2.10;98.50;;;;;;5073760;28;20572;-68
2022/12/06 05:05:45;;;;;;;0.40;0.40;;;2.10;98.60;;;;;;5073689;28;20236;-68
2022/12/06 05:08:11;;;;;;;0.70;0.70;;;2.20;98.60;;;;;;5073697;28;20429;-68
2022/12/06 05:10:37;;;;;;;0.63;0.63;;;2.20;98.50;;;;;;5073841;28;20187;-68
2022/12/06 05:13:03;;;;;;;1.03;1.03;;;2.30;98.40;;;;;;5073878;28;20172;-68
2022/12/06 05:15:29;;;;;;;0.38;0.38;;;2.20;98.20;;;;;;5073505;28;20175;-67
2022/12/06 05:17:55;;;;;;;0.30;0.30;;;2.20;98.40;;;;;;5073747;28;20201;-68
2022/12/06 05:20:21;;;;;;;0.30;0.30;;;2.20;98.70;;;;;;5073662;28;20398;-68
2022/12/06 05:22:47;;;;;;;1.03;1.03;;;2.30;98.90;;;;;;5073668;28;20399;-68
2022/12/06 05:25:12;;;;;;;0.50;0.50;;;2.20;98.90;;;;;;5073560;28;20172;-68
2022/12/06 05:27:38;;;;;;;1.60;0.97;;;2.30;98.80;;;;;;5073681;28;20676;-68
2022/12/06 05:30:05;;;;;;;0.60;0.60;;;2.40;98.90;;;;;;5073725;28;20186;-69
2022/12/06 05:32:30;;;;;;;0.95;0.95;;;2.40;98.90;;;;;;5073686;28;20170;-68
2022/12/06 05:34:56;;;;;;;0.40;0.40;;;2.40;99.00;;;;;;5072055;28;20531;-68
2022/12/06 05:37:22;;;;;;;0.60;0.60;;;2.50;99.00;;;;;;5073142;28;20213;-68
2022/12/06 05:39:47;;;;;;;0.40;0.40;;;2.50;99.00;;;;;;5073597;28;20404;-68
2022/12/06 05:42:13;;;;;;;0.40;0.40;;;2.50;98.90;;;;;;5073483;28;20170;-68
2022/12/06 05:44:40;;;;;;;0.60;0.60;;;2.50;98.80;;;;;;5073364;28;20162;-68
2022/12/06 05:47:06;;;;;;;0.85;0.50;;;2.50;98.80;;;;;;5073353;28;20297;-68
2022/12/06 05:49:31;;;;;;;0.40;0.40;;;2.60;98.80;;;;;;5073315;28;20661;-68
2022/12/06 05:51:57;;;;;;;0.30;0.30;;;2.60;98.60;;;;;;5073329;28;20404;-68
2022/12/06 05:54:22;;;;;;;0.50;0.50;;;2.60;98.60;;;;;;5075727;28;20170;-68
2022/12/06 05:56:49;;;;;;;0.40;0.40;;;2.60;98.70;;;;;;5077300;28;20715;-68
2022/12/06 05:59:14;;;;;;;0.30;0.30;;;2.60;98.90;;;;;;5077381;28;20683;-68
2022/12/06 06:01:40;;;;;;;1.53;1.53;;;2.60;99.00;;;;;;5077295;28;20169;-68
2022/12/06 06:04:06;;;;;;;0.87;0.87;;;2.70;99.10;;;;;;5077334;28;20417;-68
2022/12/06 06:06:31;;;;;;;0.50;0.50;;;2.70;98.90;;;;;;5077164;28;20196;-68
2022/12/06 06:08:57;;;;;;;0.30;0.30;;;2.70;98.70;;;;;;5077204;28;20632;-68
2022/12/06 06:11:23;;;;;;;5.67;2.90;;;2.80;98.20;;;;;;5077256;28;20211;-68
2022/12/06 06:13:48;;;;;;;0.77;0.77;;;2.80;98.30;;;;;;5077236;28;20180;-68
2022/12/06 06:16:14;;;;;;;0.30;0.30;;;2.80;98.30;;;;;;5077014;28;20261;-69
2022/12/06 06:18:40;;;;;;;0.80;0.80;;;2.70;98.30;;;;;;5077160;28;20270;-68
2022/12/06 06:21:05;;;;;;;0.60;0.60;;;2.70;98.30;;;;;;5077152;28;20622;-68
2022/12/06 06:23:31;;;;;;;0.30;0.30;;;2.80;98.10;;;;;;5077109;28;20173;-68
2022/12/06 06:25:57;;;;;;;0.40;0.40;;;2.80;98.10;;;;;;5076926;28;20170;-68
2022/12/06 06:28:23;;;;;;;0.80;0.80;;;2.70;98.10;;;;;;5076838;28;20563;-68
2022/12/06 06:30:49;;;;;;;1.03;0.90;;;2.70;98.30;;;;;;5076706;28;20637;-68
2022/12/06 06:33:14;;;;;;;1.00;1.00;;;2.60;98.40;;;;;;5077140;28;20404;-68
2022/12/06 06:35:41;;;;;;;0.97;0.97;;;2.70;98.50;;;;;;5076521;28;20195;-68
2022/12/06 06:38:07;;;;;;;0.50;0.50;;;2.70;98.60;;;;;;5076346;28;20950;-68
2022/12/06 06:40:33;;;;;;;0.38;0.38;;;2.80;98.70;;;;;;5076732;28;20513;-68
2022/12/06 06:43:16;;;;;;;0.75;0.75;;;2.80;98.70;;;;;;5076782;28;20247;-69
2022/12/06 06:45:56;;;;;;;0.98;0.98;;;2.80;98.70;;;;;;5076442;28;20188;-68
2022/12/06 06:48:22;;;;;;;0.35;0.35;;;2.80;98.40;;;;;;5076421;28;20220;-68
2022/12/06 06:50:49;;;;;;;0.93;0.93;;;2.70;98.50;;;;;;5076470;28;20180;-68
2022/12/06 06:53:14;;;;;;;0.60;0.60;;;2.70;98.60;;;;;;5076481;28;20225;-68
2022/12/06 06:55:44;;;;;;;0.37;0.37;;;2.70;98.60;;;;;;5076316;28;20181;-68
2022/12/06 06:58:13;;;;;;;0.35;0.35;;;2.70;98.50;;;;;;5076190;28;20313;-68
2022/12/06 07:00:38;;;;;;;0.50;0.50;;;2.60;98.30;;;;;;5076220;28;20162;-68
2022/12/06 07:03:04;;;;;;;0.30;0.30;;;2.70;98.50;;;;;;5076327;28;20225;-68
2022/12/06 07:05:30;;;;;;;0.40;0.40;;;2.60;98.60;;;;;;5074085;28;20254;-68
2022/12/06 07:07:56;;;;;;;0.40;0.40;;;2.60;98.80;;;;;;5076023;28;20189;-68
2022/12/06 07:10:25;;;;;;;0.75;0.75;;;2.70;99.30;;;;;;5076109;28;20164;-68
2022/12/06 07:12:52;;;;;;;0.43;0.43;;;2.70;98.50;;;;;;5076215;28;20194;-68
2022/12/06 07:15:19;;;;;;;0.65;0.65;;;2.70;98.50;;;;;;5075770;28;20172;-68
2022/12/06 07:17:45;;;;;;;0.68;0.68;;;2.60;98.60;;;;;;5075713;28;20200;-69
2022/12/06 07:20:11;;;;;;;1.00;0.93;;;2.70;98.90;;;;;;5074920;28;20172;-68
2022/12/06 07:22:36;;;;;;;0.83;0.83;;;2.70;98.90;;;;;;5075967;28;20173;-68
2022/12/06 07:25:02;;;;;;;0.40;0.40;;;2.70;98.90;;;;;;5075690;28;20204;-69
2022/12/06 07:27:28;;;;;;;0.90;0.90;;;2.80;98.90;;;;;;5075777;28;20273;-68
2022/12/06 07:29:53;;;;;;;0.30;0.30;;;2.90;98.80;;;;;;5076073;28;20400;-68
2022/12/06 07:32:19;;;;;;;3.40;3.10;;;2.90;98.70;;;;;;5075825;28;20180;-69
2022/12/06 07:34:44;;;;;;;1.03;1.03;;;2.90;98.70;;;;;;5074782;28;20175;-68
2022/12/06 07:37:10;;;;;;;6.50;1.83;;;3.00;98.70;;;;;;5075215;28;20242;-68
2022/12/06 07:39:36;;;;;;;2.57;0.80;;;3.10;98.60;;;;;;5076183;28;20507;-69
2022/12/06 07:45:00;;;;;;;0.63;0.63;;;3.10;98.50;;;;;;5075378;28;20176;-67
2022/12/06 07:47:31;;;;;;;0.75;0.75;;;3.20;97.90;;;;;;5074621;28;20279;-69
2022/12/06 07:49:56;;;;;;;0.38;0.38;;;3.10;97.90;;;;;;5074668;28;20691;-70
2022/12/06 07:52:22;;;;;;;2.20;2.10;;;3.10;98.00;;;;;;5074509;28;20181;-70
2022/12/06 07:54:48;;;;;;;0.30;0.30;;;3.10;98.10;;;;;;5074949;28;20169;-70
2022/12/06 07:57:14;;;;;;;1.23;1.23;;;3.00;98.10;;;;;;5075362;28;20256;-70
2022/12/06 07:59:39;;;;;;;0.87;0.87;;;3.00;98.10;;;;;;5075569;28;20228;-70
2022/12/06 08:02:05;;;;;;;0.60;0.60;;;3.00;98.30;;;;;;5074278;28;20403;-68
2022/12/06 08:04:31;;;;;;;0.30;0.30;;;3.20;99.30;;;;;;5075410;28;20253;-68
2022/12/06 08:06:57;;;;;;;0.43;0.43;;;3.90;99.90;;;;;;5074867;28;20279;-69
2022/12/06 08:09:23;;;;;;;2.10;2.00;;;4.90;99.20;;;;;;5074345;28;20560;-69
2022/12/06 08:11:49;;;;;;;1.33;1.33;;;6.00;98.10;;;;;;5074629;28;20535;-70
2022/12/06 08:14:15;;;;;;;10.70;2.47;;;6.90;94.40;;;;;;5073620;28;20203;-70
2022/12/06 08:16:40;;;;;;;1.23;1.23;;;7.50;93.10;;;;;;5072665;28;20189;-71
2022/12/06 08:19:10;;;;;;;0.50;0.50;;;8.00;92.50;;;;;;5074252;28;20189;-71
2022/12/06 08:21:35;;;;;;;0.50;0.50;;;8.40;91.80;;;;;;5074442;28;20396;-71
2022/12/06 08:24:02;;;;;;;0.50;0.50;;;8.70;90.50;;;;;;5074643;28;20181;-70
2022/12/06 08:26:28;;;;;;;0.68;0.68;;;9.10;90.00;;;;;;5074074;28;20173;-71
2022/12/06 08:28:54;;;;;;;2.40;0.87;;;9.50;88.60;;;;;;5074921;28;20177;-71
2022/12/06 08:31:22;;;;;;;1.27;1.17;;;9.70;86.00;;;;;;5073475;28;20410;-70
2022/12/06 08:33:48;;;;;;;1.35;1.20;;;9.80;85.50;;;;;;5074438;28;20179;-69
2022/12/06 08:36:18;;;;;;;8.27;2.75;;;9.80;84.00;;;;;;5073225;28;20185;-71
2022/12/06 08:38:44;;;;;;;1.02;1.02;;;9.80;83.90;;;;;;5074257;28;20204;-71
2022/12/06 08:43:58;;;;;;;3.20;1.50;;;10.20;79.90;;;;;;5073452;28;20436;-71
2022/12/06 08:46:25;;;;;;;2.03;1.93;;;10.60;78.60;;;;;;5074269;28;20904;-71
2022/12/06 08:48:50;;;;;;;1.60;0.93;;;10.70;77.20;;;;;;5074288;28;20404;-70
2022/12/06 08:51:16;;;;;;;3.03;1.60;;;10.60;76.00;;;;;;5073976;28;20414;-69
2022/12/06 08:53:42;;;;;;;0.70;0.70;;;10.90;76.60;;;;;;5074374;28;20498;-69
2022/12/06 08:56:08;;;;;;;1.07;1.03;;;11.20;75.10;;;;;;5074326;28;20177;-70
2022/12/06 08:58:34;;;;;;;1.07;0.67;;;11.50;74.10;;;;;;5074214;28;20279;-71
2022/12/06 09:00:59;;;;;;;0.40;0.40;;;12.10;73.60;;;;;;5074007;28;20408;-71
2022/12/06 09:03:25;;;;;;;1.20;1.10;;;12.80;70.20;;;;;;5073996;28;20205;-71
2022/12/06 09:05:50;;;;;;;0.93;0.83;;;13.60;67.70;;;;;;5073986;28;20170;-69
2022/12/06 09:08:16;;;;;;;1.17;1.17;;;14.40;65.40;;;;;;5074186;28;20203;-69
2022/12/06 09:10:43;;;;;;;1.07;0.97;;;15.50;62.10;;;;;;5073351;28;20177;-69
2022/12/06 09:13:10;;;;;;;0.47;0.47;;;16.60;58.60;;;;;;5073234;28;20172;-70
2022/12/06 09:15:37;;;;;;;0.53;0.53;;;17.50;54.90;;;;;;5072418;28;20426;-70
2022/12/06 09:18:03;;;;;;;1.70;1.33;;;18.00;52.30;;;;;;5073006;28;20542;-71
2022/12/06 09:20:28;;;;;;;0.50;0.50;;;18.00;50.60;;;;;;5074179;28;20488;-71
2022/12/06 09:22:54;;;;;;;0.37;0.37;;;17.80;49.70;;;;;;5073114;28;20634;-71
2022/12/06 09:25:20;;;;;;;0.60;0.40;;;17.80;50.00;;;;;;5073646;28;20193;-71
2022/12/06 09:27:46;;;;;;;0.57;0.57;;;18.20;49.10;;;;;;5071372;28;20197;-71
2022/12/06 09:30:12;;;;;;;0.63;0.63;;;18.60;47.80;;;;;;5073039;28;20198;-71
2022/12/06 09:32:38;;;;;;;0.60;0.60;;;19.00;47.30;;;;;;5073774;28;20416;-70
2022/12/06 09:35:04;;;;;;;0.90;0.40;;;19.40;45.90;;;;;;5072764;28;20714;-70
2022/12/06 09:37:31;;;;;;;0.40;0.40;;;19.40;44.50;;;;;;5073316;28;20572;-70
2022/12/06 09:40:01;;;;;;;1.33;1.23;;;19.40;45.10;;;;;;5072980;28;20436;-70
2022/12/06 09:43:06;;;;;;;1.73;0.73;;;19.90;44.70;;;;;;5074032;28;20860;-72
2022/12/06 09:46:10;;;;;;;0.60;0.40;;;20.10;43.00;;;;;;5073488;28;20516;-72
2022/12/06 09:49:00;;;;;;;0.60;0.60;;;19.40;42.50;;;;;;5073668;28;20395;-72
2022/12/06 09:52:03;;;;;;;0.40;0.40;;;19.00;44.20;;;;;;5073341;28;20721;-72
2022/12/06 09:54:58;;;;;;;0.50;0.50;;;19.10;43.80;;;;;;5073246;28;20403;-72
2022/12/06 09:57:27;;;;;;;0.80;0.77;;;19.40;43.90;;;;;;5073160;28;20792;-70
2022/12/06 10:00:04;;;;;;;0.30;0.30;;;19.90;43.40;;;;;;5073453;28;20406;-71
2022/12/06 10:02:49;;;;;;;0.50;0.50;;;20.20;43.00;;;;;;5072540;28;20434;-71
2022/12/06 10:05:17;;;;;;;0.40;0.40;;;20.40;43.80;;;;;;5073277;28;20472;-71
2022/12/06 10:07:49;;;;;;;0.83;0.83;;;20.60;42.40;;;;;;5072351;28;21019;-71
2022/12/06 10:10:31;;;;;;;0.70;0.60;;;20.80;43.10;;;;;;5071931;28;20515;-71
2022/12/06 10:12:57;;;;;;;0.53;0.50;;;20.90;43.50;;;;;;5072858;28;20525;-72
2022/12/06 10:15:22;;;;;;;0.60;0.60;;;20.80;43.50;;;;;;5071672;28;20436;-72
2022/12/06 10:18:09;;;;;;;0.67;0.67;;;20.60;43.40;;;;;;5072210;28;20204;-72
2022/12/06 10:20:48;;;;;;;0.50;0.50;;;20.50;43.50;;;;;;5073483;28;20169;-72
2022/12/06 10:23:43;;;;;;;0.40;0.40;;;20.10;43.50;;;;;;5073259;28;20389;-72
2022/12/06 10:26:20;;;;;;;0.50;0.50;;;19.70;43.90;;;;;;5072674;28;20381;-72
2022/12/06 10:29:36;;;;;;;0.50;0.40;;;19.20;44.70;;;;;;5073162;28;20370;-72
2022/12/06 10:32:13;;;;;;;0.73;0.60;;;19.00;45.20;;;;;;5054056;28;20419;-72
2022/12/06 10:34:47;;;;;;;0.50;0.50;;;18.50;45.90;;;;;;5070763;28;21007;-72
2022/12/06 10:37:27;;;;;;;0.40;0.40;;;18.10;46.30;;;;;;5063019;28;20484;-72
2022/12/06 10:40:01;;;;;;;1.13;0.60;;;17.80;46.50;;;;;;5073099;28;20418;-72
2022/12/06 10:42:43;;;;;;;0.30;0.30;;;17.40;47.40;;;;;;5076499;28;20495;-72
2022/12/06 10:48:55;;;;;;;0.40;0.40;;;15.00;51.70;;;;;;5076580;28;20429;-71
2022/12/06 10:51:28;;;;;;;0.30;0.30;;;14.20;53.30;;;;;;5076542;28;20441;-71
2022/12/06 10:53:59;;;;;;;0.50;0.50;;;13.30;54.70;;;;;;5076357;28;20399;-71
2022/12/06 10:56:30;;;;;;;0.53;0.50;;;12.80;56.80;;;;;;5076206;28;20420;-71
2022/12/06 10:59:01;;;;;;;0.40;0.40;;;12.30;57.10;;;;;;5076324;28;20800;-71
2022/12/06 11:01:32;;;;;;;0.40;0.40;;;11.90;58.30;;;;;;5076368;28;20403;-69
2022/12/06 11:04:12;;;;;;;0.73;0.70;;;11.40;58.50;;;;;;5076114;28;20419;-69
2022/12/06 11:07:07;;;;;;;0.40;0.40;;;10.90;61.20;;;;;;5076244;28;20903;-69
2022/12/06 11:09:41;;;;;;;0.30;0.30;;;10.20;63.40;;;;;;5075898;28;20473;-69
2022/12/06 11:12:27;;;;;;;0.50;0.50;;;9.80;65.70;;;;;;5075905;28;20418;-70
2022/12/06 11:15:04;;;;;;;0.40;0.40;;;9.60;63.70;;;;;;5075925;28;20276;-69
2022/12/06 11:17:36;;;;;;;0.50;0.50;;;9.40;66.50;;;;;;5075703;28;20193;-69
2022/12/06 11:20:09;;;;;;;0.40;0.40;;;9.20;67.70;;;;;;5076095;28;20165;-69
2022/12/06 11:23:07;;;;;;;0.30;0.30;;;9.00;71.00;;;;;;5075991;28;20312;-69
2022/12/06 11:25:51;;;;;;;0.40;0.40;;;8.90;73.80;;;;;;5073803;28;20643;-70
2022/12/06 11:28:37;;;;;;;0.30;0.30;;;8.70;72.70;;;;;;5074367;28;20197;-70
2022/12/06 11:31:15;;;;;;;0.30;0.30;;;8.60;74.00;;;;;;5075628;28;20543;-69
2022/12/06 11:33:41;;;;;;;0.50;0.50;;;8.30;74.30;;;;;;5075874;28;20256;-69
2022/12/06 11:36:07;;;;;;;0.33;0.33;;;8.20;76.20;;;;;;5075596;28;20208;-69
2022/12/06 11:38:33;;;;;;;0.60;0.60;;;8.00;76.20;;;;;;5075385;28;20330;-68
2022/12/06 11:41:00;;;;;;;0.88;0.88;;;7.80;77.30;;;;;;5075590;28;20166;-69
2022/12/06 11:43:34;;;;;;;1.38;1.38;;;7.60;77.60;;;;;;5075551;28;20580;-69
2022/12/06 11:46:01;;;;;;;0.40;0.40;;;7.50;77.00;;;;;;5075339;28;20201;-69
2022/12/06 11:48:31;;;;;;;0.40;0.40;;;7.40;77.90;;;;;;5075225;28;20199;-69
2022/12/06 11:50:57;;;;;;;0.40;0.40;;;7.30;79.30;;;;;;5073229;28;20179;-68
2022/12/06 11:53:40;;;;;;;0.30;0.30;;;7.30;80.30;;;;;;5075500;28;20185;-68
2022/12/06 11:56:20;;;;;;;0.50;0.50;;;7.20;80.00;;;;;;5074258;28;20409;-68
2022/12/06 11:59:05;;;;;;;0.30;0.30;;;7.10;79.50;;;;;;5075354;28;20197;-68
2022/12/06 12:01:46;;;;;;;0.40;0.40;;;7.00;79.80;;;;;;5075260;28;20688;-67
2022/12/06 12:04:38;;;;;;;0.90;0.90;;;7.00;81.60;;;;;;5075345;28;20165;-67
2022/12/06 12:07:17;;;;;;;1.13;1.02;;;6.90;82.00;;;;;;5074015;28;20684;-68
2022/12/06 12:09:49;;;;;;;0.40;0.40;;;6.90;81.40;;;;;;5075368;28;20174;-68
2022/12/06 12:12:20;;;;;;;0.40;0.40;;;6.80;82.50;;;;;;5074909;28;20178;-68
2022/12/06 12:14:57;;;;;;;1.60;0.68;;;6.90;82.10;;;;;;5074923;28;20293;-69
2022/12/06 12:17:29;;;;;;;0.30;0.30;;;6.80;82.10;;;;;;5073623;28;20261;-67
2022/12/06 12:20:05;;;;;;;0.60;0.60;;;6.70;83.70;;;;;;5075128;28;20256;-68
2022/12/06 12:22:39;;;;;;;2.08;1.98;;;6.50;84.40;;;;;;5075057;28;20222;-67
2022/12/06 12:25:26;;;;;;;2.55;2.35;;;6.40;86.60;;;;;;5074854;28;20179;-69
2022/12/06 12:27:57;;;;;;;0.80;0.80;;;6.30;88.60;;;;;;5074546;28;20193;-68
2022/12/06 12:30:35;;;;;;;0.88;0.82;;;6.30;90.10;;;;;;5074540;28;20250;-68
2022/12/06 12:33:04;;;;;;;1.00;0.95;;;6.30;90.80;;;;;;5075130;28;20252;-69
2022/12/06 12:35:32;;;;;;;1.20;1.20;;;6.30;91.40;;;;;;5074495;28;20230;-67
2022/12/06 12:38:09;;;;;;;1.58;1.48;;;6.20;92.10;;;;;;5073991;28;20292;-69
2022/12/06 12:40:40;;;;;;;1.30;1.20;;;6.10;92.70;;;;;;5072949;28;20623;-69
2022/12/06 12:43:12;;;;;;;1.65;1.38;;;6.10;93.20;;;;;;5074747;28;20170;-68
2022/12/06 12:45:39;;;;;;;0.57;0.57;;;6.10;93.30;;;;;;5074201;28;20205;-68
2022/12/06 12:48:26;;;;;;;9.10;1.83;;;6.20;93.50;;;;;;5074168;28;20667;-68
2022/12/06 12:50:58;;;;;;;0.55;0.55;;;6.20;93.70;;;;;;5074391;28;20523;-68
2022/12/06 12:53:40;;;;;;;0.60;0.60;;;6.20;94.10;;;;;;5074409;28;20174;-68
2022/12/06 12:56:16;;;;;;;0.80;0.80;;;6.20;93.80;;;;;;5073971;28;20174;-68
2022/12/06 12:58:45;;;;;;;1.08;1.08;;;6.20;94.00;;;;;;5074226;28;20276;-68
2022/12/06 13:01:29;;;;;;;0.90;0.90;;;6.20;94.20;;;;;;5074204;28;20166;-67
2022/12/06 13:04:11;;;;;;;0.52;0.52;;;6.00;94.70;;;;;;5072511;28;20181;-68
2022/12/06 13:06:55;;;;;;;3.20;2.00;;;5.90;95.10;;;;;;5073699;28;20181;-69
2022/12/06 13:09:20;;;;;;;0.60;0.60;;;5.70;95.50;;;;;;5074186;28;20169;-68
2022/12/06 13:11:52;;;;;;;0.47;0.47;;;5.70;96.10;;;;;;5074089;28;20224;-68
2022/12/06 13:14:21;;;;;;;0.88;0.88;;;5.80;96.10;;;;;;5073811;28;20404;-69
2022/12/06 13:16:52;;;;;;;0.68;0.68;;;5.80;95.90;;;;;;5073178;28;20616;-69
2022/12/06 13:19:22;;;;;;;3.00;2.15;;;6.00;95.70;;;;;;5072497;28;20247;-68
2022/12/06 13:21:49;;;;;;;1.15;1.13;;;6.00;95.60;;;;;;5073708;28;20202;-69
2022/12/06 13:24:26;;;;;;;2.63;1.90;;;5.90;95.40;;;;;;5073505;28;20181;-68
2022/12/06 13:26:57;;;;;;;0.40;0.40;;;5.80;95.60;;;;;;5073702;28;20204;-69
2022/12/06 13:29:30;;;;;;;0.77;0.77;;;5.70;95.80;;;;;;5073539;28;20160;-69
2022/12/06 13:31:59;;;;;;;1.08;1.08;;;5.70;96.10;;;;;;5072295;28;20192;-69
2022/12/06 13:34:35;;;;;;;0.50;0.50;;;5.70;96.20;;;;;;5073255;28;20257;-69
2022/12/06 13:37:01;;;;;;;3.55;2.05;;;5.70;96.30;;;;;;5073520;28;20215;-68
2022/12/06 13:39:30;;;;;;;0.60;0.60;;;5.60;96.30;;;;;;5073442;28;20250;-69
2022/12/06 13:44:49;;;;;;;1.13;1.13;;;5.60;96.40;;;;;;5073319;28;20176;-69
2022/12/06 13:47:27;;;;;;;1.80;1.70;;;5.60;96.50;;;;;;5072061;28;20188;-69